sensor_id;sensor_type;location;lat;lon;timestamp;P1;P4;P2;P0;N10;N4;N25;N1;N05;TS
42106;SPS30;27764;50.278;19.032;2023-03-13T00:00:47;5;;5;;;;;;;
42106;SPS30;27764;50.278;19.032;2023-03-13T00:04:01;6;;6;;;;;;;
42106;SPS30;27764;50.278;19.032;2023-03-13T00:07:15;6;;6;;;;;;;
42106;SPS30;27764;50.278;19.032;2023-03-13T00:10:29;5;;5;;;;;;;
42106;SPS30;27764;50.278;19.032;2023-03-13T00:14:21;5;;5;;;;;;;
42106;SPS30;27764;50.278;19.032;2023-03-13T00:17:35;5;;5;;;;;;;
42106;SPS30;27764;50.278;19.032;2023-03-13T00:20:49;5;;5;;;;;;;
42106;SPS30;27764;50.278;19.032;2023-03-13T00:24:11;5;;5;;;;;;;
42106;SPS30;27764;50.278;19.032;2023-03-13T00:28:07;5;;5;;;;;;;
42106;SPS30;27764;50.278;19.032;2023-03-13T05:35:08;6;;6;;;;;;;
42106;SPS30;27764;50.278;19.032;2023-03-13T05:38:22;8;;8;;;;;;;
42106;SPS30;27764;50.278;19.032;2023-03-13T05:41:36;8;;8;;;;;;;
42106;SPS30;27764;50.278;19.032;2023-03-13T05:44:50;6;;6;;;;;;;
42106;SPS30;27764;50.278;19.032;2023-03-13T05:48:04;8;;8;;;;;;;
42106;SPS30;27764;50.278;19.032;2023-03-13T05:51:49;13;;13;;;;;;;
42106;SPS30;27764;50.278;19.032;2023-03-13T05:55:03;12;;12;;;;;;;
42106;SPS30;27764;50.278;19.032;2023-03-13T05:58:17;13;;13;;;;;;;
42106;SPS30;27764;50.278;19.032;2023-03-13T06:01:31;13;;13;;;;;;;
42106;SPS30;27764;50.278;19.032;2023-03-13T06:04:45;12;;12;;;;;;;
42106;SPS30;27764;50.278;19.032;2023-03-13T06:08:33;9;;9;;;;;;;
42106;SPS30;27764;50.278;19.032;2023-03-13T06:11:47;8;;8;;;;;;;
42106;SPS30;27764;50.278;19.032;2023-03-13T06:15:01;7;;7;;;;;;;
42106;SPS30;27764;50.278;19.032;2023-03-13T06:18:16;8;;8;;;;;;;
42106;SPS30;27764;50.278;19.032;2023-03-13T06:21:29;7;;7;;;;;;;
42106;SPS30;27764;50.278;19.032;2023-03-13T06:25:10;7;;7;;;;;;;
42106;SPS30;27764;50.278;19.032;2023-03-13T06:28:24;8;;8;;;;;;;
42106;SPS30;27764;50.278;19.032;2023-03-13T06:31:38;7;;7;;;;;;;
42106;SPS30;27764;50.278;19.032;2023-03-13T06:34:52;8;;8;;;;;;;
42106;SPS30;27764;50.278;19.032;2023-03-13T06:38:06;7;;7;;;;;;;
42106;SPS30;27764;50.278;19.032;2023-03-13T06:41:51;8;;8;;;;;;;
42106;SPS30;27764;50.278;19.032;2023-03-13T06:45:05;7;;7;;;;;;;
42106;SPS30;27764;50.278;19.032;2023-03-13T06:48:20;7;;7;;;;;;;
42106;SPS30;27764;50.278;19.032;2023-03-13T06:51:37;8;;8;;;;;;;
42106;SPS30;27764;50.278;19.032;2023-03-13T06:54:51;7;;7;;;;;;;
42106;SPS30;27764;50.278;19.032;2023-03-13T06:58:36;8;;8;;;;;;;
42106;SPS30;27764;50.278;19.032;2023-03-13T07:01:50;8;;8;;;;;;;
42106;SPS30;27764;50.278;19.032;2023-03-13T07:05:04;7;;7;;;;;;;
42106;SPS30;27764;50.278;19.032;2023-03-13T07:08:20;7;;7;;;;;;;
42106;SPS30;27764;50.278;19.032;2023-03-13T07:11:33;7;;7;;;;;;;
42106;SPS30;27764;50.278;19.032;2023-03-13T07:15:25;7;;7;;;;;;;
42106;SPS30;27764;50.278;19.032;2023-03-13T07:18:39;7;;7;;;;;;;
42106;SPS30;27764;50.278;19.032;2023-03-13T07:21:54;7;;7;;;;;;;
42106;SPS30;27764;50.278;19.032;2023-03-13T07:25:10;7;;7;;;;;;;
42106;SPS30;27764;50.278;19.032;2023-03-13T07:28:24;7;;7;;;;;;;
42106;SPS30;27764;50.278;19.032;2023-03-13T07:32:15;6;;6;;;;;;;
42106;SPS30;27764;50.278;19.032;2023-03-13T07:35:29;7;;7;;;;;;;
42106;SPS30;27764;50.278;19.032;2023-03-13T07:38:46;6;;6;;;;;;;
42106;SPS30;27764;50.278;19.032;2023-03-13T07:42:00;6;;6;;;;;;;
42106;SPS30;27764;50.278;19.032;2023-03-13T07:45:14;6;;6;;;;;;;
42106;SPS30;27764;50.278;19.032;2023-03-13T07:49:02;7;;7;;;;;;;
42106;SPS30;27764;50.278;19.032;2023-03-13T07:52:16;6;;6;;;;;;;
42106;SPS30;27764;50.278;19.032;2023-03-13T07:55:31;6;;6;;;;;;;
42106;SPS30;27764;50.278;19.032;2023-03-13T07:58:44;6;;6;;;;;;;
42106;SPS30;27764;50.278;19.032;2023-03-13T08:01:59;6;;6;;;;;;;
42106;SPS30;27764;50.278;19.032;2023-03-13T08:09:17;5;;5;;;;;;;
42106;SPS30;27764;50.278;19.032;2023-03-13T08:12:31;6;;6;;;;;;;
42106;SPS30;27764;50.278;19.032;2023-03-13T08:15:45;6;;6;;;;;;;
42106;SPS30;27764;50.278;19.032;2023-03-13T08:19:43;5;;5;;;;;;;
42106;SPS30;27764;50.278;19.032;2023-03-13T08:22:57;7;;7;;;;;;;
42106;SPS30;27764;50.278;19.032;2023-03-13T08:26:15;6;;6;;;;;;;
42106;SPS30;27764;50.278;19.032;2023-03-13T08:29:30;5;;5;;;;;;;
42106;SPS30;27764;50.278;19.032;2023-03-13T08:32:47;6;;6;;;;;;;
42106;SPS30;27764;50.278;19.032;2023-03-13T08:36:38;6;;6;;;;;;;
42106;SPS30;27764;50.278;19.032;2023-03-13T08:39:52;6;;6;;;;;;;
42106;SPS30;27764;50.278;19.032;2023-03-13T08:43:08;6;;6;;;;;;;
42106;SPS30;27764;50.278;19.032;2023-03-13T08:46:22;6;;6;;;;;;;
42106;SPS30;27764;50.278;19.032;2023-03-13T08:49:37;7;;7;;;;;;;
42106;SPS30;27764;50.278;19.032;2023-03-13T08:53:23;7;;7;;;;;;;
42106;SPS30;27764;50.278;19.032;2023-03-13T08:56:37;7;;7;;;;;;;
42106;SPS30;27764;50.278;19.032;2023-03-13T08:59:55;7;;7;;;;;;;
42106;SPS30;27764;50.278;19.032;2023-03-13T09:03:09;6;;6;;;;;;;
42106;SPS30;27764;50.278;19.032;2023-03-13T09:06:23;6;;6;;;;;;;
42106;SPS30;27764;50.278;19.032;2023-03-13T09:10:10;6;;6;;;;;;;
42106;SPS30;27764;50.278;19.032;2023-03-13T09:13:24;6;;6;;;;;;;
42106;SPS30;27764;50.278;19.032;2023-03-13T09:16:39;5;;5;;;;;;;
42106;SPS30;27764;50.278;19.032;2023-03-13T09:19:53;6;;6;;;;;;;
42106;SPS30;27764;50.278;19.032;2023-03-13T09:23:06;5;;5;;;;;;;
42106;SPS30;27764;50.278;19.032;2023-03-13T09:27:03;5;;5;;;;;;;
42106;SPS30;27764;50.278;19.032;2023-03-13T09:30:17;6;;6;;;;;;;
42106;SPS30;27764;50.278;19.032;2023-03-13T09:33:31;5;;5;;;;;;;
42106;SPS30;27764;50.278;19.032;2023-03-13T09:36:45;5;;5;;;;;;;
42106;SPS30;27764;50.278;19.032;2023-03-13T09:39:59;5;;5;;;;;;;
42106;SPS30;27764;50.278;19.032;2023-03-13T09:50:45;5;;5;;;;;;;
42106;SPS30;27764;50.278;19.032;2023-03-13T09:54:06;4;;4;;;;;;;
42106;SPS30;27764;50.278;19.032;2023-03-13T10:01:31;3;;3;;;;;;;
42106;SPS30;27764;50.278;19.032;2023-03-13T10:04:48;3;;3;;;;;;;
42106;SPS30;27764;50.278;19.032;2023-03-13T10:12:18;2;;2;;;;;;;
42106;SPS30;27764;50.278;19.032;2023-03-13T10:15:41;2;;2;;;;;;;
42106;SPS30;27764;50.278;19.032;2023-03-13T10:19:12;3;;3;;;;;;;
42106;SPS30;27764;50.278;19.032;2023-03-13T10:22:25;3;;3;;;;;;;
42106;SPS30;27764;50.278;19.032;2023-03-13T10:29:34;2;;2;;;;;;;
42106;SPS30;27764;50.278;19.032;2023-03-13T10:32:48;3;;3;;;;;;;
42106;SPS30;27764;50.278;19.032;2023-03-13T10:39:24;2;;2;;;;;;;
42106;SPS30;27764;50.278;19.032;2023-03-13T10:43:18;2;;2;;;;;;;
42106;SPS30;27764;50.278;19.032;2023-03-13T10:46:34;2;;2;;;;;;;
42106;SPS30;27764;50.278;19.032;2023-03-13T10:49:56;2;;2;;;;;;;
42106;SPS30;27764;50.278;19.032;2023-03-13T11:00:42;3;;3;;;;;;;
42106;SPS30;27764;50.278;19.032;2023-03-13T11:03:56;3;;3;;;;;;;
42106;SPS30;27764;50.278;19.032;2023-03-13T11:07:13;3;;3;;;;;;;
42106;SPS30;27764;50.278;19.032;2023-03-13T11:14:31;2;;2;;;;;;;
42106;SPS30;27764;50.278;19.032;2023-03-13T11:17:51;3;;3;;;;;;;
42106;SPS30;27764;50.278;19.032;2023-03-13T11:21:36;3;;3;;;;;;;
42106;SPS30;27764;50.278;19.032;2023-03-13T11:25:27;3;;3;;;;;;;
42106;SPS30;27764;50.278;19.032;2023-03-13T11:32:19;2;;2;;;;;;;
42106;SPS30;27764;50.278;19.032;2023-03-13T11:43:12;2;;2;;;;;;;
42106;SPS30;27764;50.278;19.032;2023-03-13T11:46:37;3;;2;;;;;;;
42106;SPS30;27764;50.278;19.032;2023-03-13T11:57:42;3;;3;;;;;;;
42106;SPS30;27764;50.278;19.032;2023-03-13T12:00:59;2;;2;;;;;;;
42106;SPS30;27764;50.278;19.032;2023-03-13T12:04:54;2;;2;;;;;;;
42106;SPS30;27764;50.278;19.032;2023-03-13T12:08:18;2;;2;;;;;;;
42106;SPS30;27764;50.278;19.032;2023-03-13T12:11:48;2;;2;;;;;;;
42106;SPS30;27764;50.278;19.032;2023-03-13T12:22:35;2;;2;;;;;;;
42106;SPS30;27764;50.278;19.032;2023-03-13T12:29:27;2;;2;;;;;;;
42106;SPS30;27764;50.278;19.032;2023-03-13T12:33:21;2;;2;;;;;;;
42106;SPS30;27764;50.278;19.032;2023-03-13T12:36:45;2;;2;;;;;;;
42106;SPS30;27764;50.278;19.032;2023-03-13T12:40:18;2;;2;;;;;;;
42106;SPS30;27764;50.278;19.032;2023-03-13T12:43:31;3;;3;;;;;;;
42106;SPS30;27764;50.278;19.032;2023-03-13T13:01:33;3;;3;;;;;;;
42106;SPS30;27764;50.278;19.032;2023-03-13T13:04:52;4;;4;;;;;;;
42106;SPS30;27764;50.278;19.032;2023-03-13T13:08:20;3;;3;;;;;;;
42106;SPS30;27764;50.278;19.032;2023-03-13T13:15:31;3;;3;;;;;;;
42106;SPS30;27764;50.278;19.032;2023-03-13T13:18:45;3;;3;;;;;;;
42106;SPS30;27764;50.278;19.032;2023-03-13T13:25:27;4;;4;;;;;;;
42106;SPS30;27764;50.278;19.032;2023-03-13T13:32:55;4;;4;;;;;;;
42106;SPS30;27764;50.278;19.032;2023-03-13T13:36:26;4;;4;;;;;;;
42106;SPS30;27764;50.278;19.032;2023-03-13T13:43:39;4;;4;;;;;;;
42106;SPS30;27764;50.278;19.032;2023-03-13T13:46:55;4;;4;;;;;;;
42106;SPS30;27764;50.278;19.032;2023-03-13T13:53:32;4;;4;;;;;;;
42106;SPS30;27764;50.278;19.032;2023-03-13T13:57:35;4;;4;;;;;;;
42106;SPS30;27764;50.278;19.032;2023-03-13T14:04:15;4;;4;;;;;;;
42106;SPS30;27764;50.278;19.032;2023-03-13T14:11:55;4;;4;;;;;;;
42106;SPS30;27764;50.278;19.032;2023-03-13T14:18:32;4;;4;;;;;;;
42106;SPS30;27764;50.278;19.032;2023-03-13T14:21:46;4;;4;;;;;;;
42106;SPS30;27764;50.278;19.032;2023-03-13T14:25:00;5;;5;;;;;;;
42106;SPS30;27764;50.278;19.032;2023-03-13T14:28:51;5;;5;;;;;;;
42106;SPS30;27764;50.278;19.032;2023-03-13T14:32:07;5;;5;;;;;;;
42106;SPS30;27764;50.278;19.032;2023-03-13T14:35:21;4;;4;;;;;;;
42106;SPS30;27764;50.278;19.032;2023-03-13T14:38:35;5;;5;;;;;;;
42106;SPS30;27764;50.278;19.032;2023-03-13T14:41:50;5;;5;;;;;;;
42106;SPS30;27764;50.278;19.032;2023-03-13T14:45:37;5;;5;;;;;;;
42106;SPS30;27764;50.278;19.032;2023-03-13T14:48:52;7;;7;;;;;;;
42106;SPS30;27764;50.278;19.032;2023-03-13T14:52:18;8;;8;;;;;;;
42106;SPS30;27764;50.278;19.032;2023-03-13T14:55:32;7;;7;;;;;;;
42106;SPS30;27764;50.278;19.032;2023-03-13T14:59:30;6;;6;;;;;;;
42106;SPS30;27764;50.278;19.032;2023-03-13T15:02:44;6;;6;;;;;;;
42106;SPS30;27764;50.278;19.032;2023-03-13T15:09:23;6;;6;;;;;;;
42106;SPS30;27764;50.278;19.032;2023-03-13T15:13:25;7;;7;;;;;;;
42106;SPS30;27764;50.278;19.032;2023-03-13T15:16:45;7;;7;;;;;;;
42106;SPS30;27764;50.278;19.032;2023-03-13T15:20:00;7;;7;;;;;;;
42106;SPS30;27764;50.278;19.032;2023-03-13T15:23:13;5;;5;;;;;;;
42106;SPS30;27764;50.278;19.032;2023-03-13T15:27:14;7;;7;;;;;;;
42106;SPS30;27764;50.278;19.032;2023-03-13T15:30:29;6;;6;;;;;;;
42106;SPS30;27764;50.278;19.032;2023-03-13T15:33:44;6;;6;;;;;;;
42106;SPS30;27764;50.278;19.032;2023-03-13T15:36:57;5;;5;;;;;;;
42106;SPS30;27764;50.278;19.032;2023-03-13T15:40:15;6;;6;;;;;;;
42106;SPS30;27764;50.278;19.032;2023-03-13T15:44:01;6;;6;;;;;;;
42106;SPS30;27764;50.278;19.032;2023-03-13T15:47:18;6;;6;;;;;;;
42106;SPS30;27764;50.278;19.032;2023-03-13T15:50:34;6;;6;;;;;;;
42106;SPS30;27764;50.278;19.032;2023-03-13T15:53:48;6;;6;;;;;;;
42106;SPS30;27764;50.278;19.032;2023-03-13T15:57:02;6;;6;;;;;;;
42106;SPS30;27764;50.278;19.032;2023-03-13T16:00:56;6;;6;;;;;;;
42106;SPS30;27764;50.278;19.032;2023-03-13T16:04:10;7;;7;;;;;;;
42106;SPS30;27764;50.278;19.032;2023-03-13T16:07:25;6;;6;;;;;;;
42106;SPS30;27764;50.278;19.032;2023-03-13T16:10:39;5;;5;;;;;;;
42106;SPS30;27764;50.278;19.032;2023-03-13T16:13:54;6;;6;;;;;;;
42106;SPS30;27764;50.278;19.032;2023-03-13T16:17:42;6;;6;;;;;;;
42106;SPS30;27764;50.278;19.032;2023-03-13T16:20:56;6;;6;;;;;;;
42106;SPS30;27764;50.278;19.032;2023-03-13T16:24:10;6;;6;;;;;;;
42106;SPS30;27764;50.278;19.032;2023-03-13T16:27:24;6;;6;;;;;;;
42106;SPS30;27764;50.278;19.032;2023-03-13T16:30:41;6;;6;;;;;;;
42106;SPS30;27764;50.278;19.032;2023-03-13T16:34:31;6;;6;;;;;;;
42106;SPS30;27764;50.278;19.032;2023-03-13T16:37:45;6;;6;;;;;;;
42106;SPS30;27764;50.278;19.032;2023-03-13T16:40:59;7;;7;;;;;;;
42106;SPS30;27764;50.278;19.032;2023-03-13T16:44:13;6;;6;;;;;;;
42106;SPS30;27764;50.278;19.032;2023-03-13T16:47:27;6;;6;;;;;;;
42106;SPS30;27764;50.278;19.032;2023-03-13T16:51:21;7;;7;;;;;;;
42106;SPS30;27764;50.278;19.032;2023-03-13T16:54:36;7;;7;;;;;;;
42106;SPS30;27764;50.278;19.032;2023-03-13T16:57:50;7;;7;;;;;;;
42106;SPS30;27764;50.278;19.032;2023-03-13T17:01:07;7;;7;;;;;;;
42106;SPS30;27764;50.278;19.032;2023-03-13T17:04:21;8;;8;;;;;;;
42106;SPS30;27764;50.278;19.032;2023-03-13T17:08:08;7;;7;;;;;;;
42106;SPS30;27764;50.278;19.032;2023-03-13T17:11:26;6;;6;;;;;;;
42106;SPS30;27764;50.278;19.032;2023-03-13T17:14:41;7;;7;;;;;;;
42106;SPS30;27764;50.278;19.032;2023-03-13T17:17:58;7;;7;;;;;;;
42106;SPS30;27764;50.278;19.032;2023-03-13T17:21:13;8;;8;;;;;;;
42106;SPS30;27764;50.278;19.032;2023-03-13T17:25:17;8;;8;;;;;;;
42106;SPS30;27764;50.278;19.032;2023-03-13T17:28:31;8;;8;;;;;;;
42106;SPS30;27764;50.278;19.032;2023-03-13T17:31:45;7;;7;;;;;;;
42106;SPS30;27764;50.278;19.032;2023-03-13T17:34:59;7;;7;;;;;;;
42106;SPS30;27764;50.278;19.032;2023-03-13T17:38:12;6;;6;;;;;;;
42106;SPS30;27764;50.278;19.032;2023-03-13T17:42:13;7;;7;;;;;;;
42106;SPS30;27764;50.278;19.032;2023-03-13T17:45:27;7;;7;;;;;;;
42106;SPS30;27764;50.278;19.032;2023-03-13T17:48:49;7;;7;;;;;;;
42106;SPS30;27764;50.278;19.032;2023-03-13T17:52:05;6;;6;;;;;;;
42106;SPS30;27764;50.278;19.032;2023-03-13T17:55:19;7;;7;;;;;;;
42106;SPS30;27764;50.278;19.032;2023-03-13T17:59:09;7;;7;;;;;;;
42106;SPS30;27764;50.278;19.032;2023-03-13T18:02:26;7;;7;;;;;;;
42106;SPS30;27764;50.278;19.032;2023-03-13T18:05:40;6;;6;;;;;;;
42106;SPS30;27764;50.278;19.032;2023-03-13T18:08:55;7;;7;;;;;;;
42106;SPS30;27764;50.278;19.032;2023-03-13T18:12:55;6;;6;;;;;;;
42106;SPS30;27764;50.278;19.032;2023-03-13T18:19:35;7;;7;;;;;;;
42106;SPS30;27764;50.278;19.032;2023-03-13T18:22:49;6;;6;;;;;;;
42106;SPS30;27764;50.278;19.032;2023-03-13T18:26:44;9;;9;;;;;;;
42106;SPS30;27764;50.278;19.032;2023-03-13T18:30:01;8;;8;;;;;;;
42106;SPS30;27764;50.278;19.032;2023-03-13T18:33:14;8;;8;;;;;;;
42106;SPS30;27764;50.278;19.032;2023-03-13T18:36:29;7;;7;;;;;;;
42106;SPS30;27764;50.278;19.032;2023-03-13T18:39:43;8;;8;;;;;;;
42106;SPS30;27764;50.278;19.032;2023-03-13T18:43:29;8;;8;;;;;;;
42106;SPS30;27764;50.278;19.032;2023-03-13T18:46:43;8;;8;;;;;;;
42106;SPS30;27764;50.278;19.032;2023-03-13T18:49:57;8;;8;;;;;;;
42106;SPS30;27764;50.278;19.032;2023-03-13T18:53:11;10;;10;;;;;;;
42106;SPS30;27764;50.278;19.032;2023-03-13T18:56:27;9;;9;;;;;;;
42106;SPS30;27764;50.278;19.032;2023-03-13T19:00:22;8;;8;;;;;;;
42106;SPS30;27764;50.278;19.032;2023-03-13T19:03:38;9;;9;;;;;;;
42106;SPS30;27764;50.278;19.032;2023-03-13T19:06:52;9;;9;;;;;;;
42106;SPS30;27764;50.278;19.032;2023-03-13T19:14:13;7;;7;;;;;;;
42106;SPS30;27764;50.278;19.032;2023-03-13T19:17:27;8;;8;;;;;;;
42106;SPS30;27764;50.278;19.032;2023-03-13T19:20:44;7;;7;;;;;;;
42106;SPS30;27764;50.278;19.032;2023-03-13T19:23:57;7;;7;;;;;;;
42106;SPS30;27764;50.278;19.032;2023-03-13T19:27:12;7;;7;;;;;;;
42106;SPS30;27764;50.278;19.032;2023-03-13T19:30:58;7;;7;;;;;;;
42106;SPS30;27764;50.278;19.032;2023-03-13T19:34:12;7;;7;;;;;;;
42106;SPS30;27764;50.278;19.032;2023-03-13T19:37:29;6;;6;;;;;;;
42106;SPS30;27764;50.278;19.032;2023-03-13T19:40:43;6;;6;;;;;;;
42106;SPS30;27764;50.278;19.032;2023-03-13T19:43:56;6;;6;;;;;;;
42106;SPS30;27764;50.278;19.032;2023-03-13T19:47:42;5;;5;;;;;;;
42106;SPS30;27764;50.278;19.032;2023-03-13T19:50:56;6;;6;;;;;;;
42106;SPS30;27764;50.278;19.032;2023-03-13T19:54:10;6;;6;;;;;;;
42106;SPS30;27764;50.278;19.032;2023-03-13T19:57:24;6;;6;;;;;;;
42106;SPS30;27764;50.278;19.032;2023-03-13T20:00:38;6;;6;;;;;;;
42106;SPS30;27764;50.278;19.032;2023-03-13T20:04:33;5;;5;;;;;;;
42106;SPS30;27764;50.278;19.032;2023-03-13T20:07:47;5;;5;;;;;;;
42106;SPS30;27764;50.278;19.032;2023-03-13T20:11:01;5;;5;;;;;;;
42106;SPS30;27764;50.278;19.032;2023-03-13T20:14:17;5;;5;;;;;;;
42106;SPS30;27764;50.278;19.032;2023-03-13T20:17:31;5;;5;;;;;;;
42106;SPS30;27764;50.278;19.032;2023-03-13T20:21:28;5;;5;;;;;;;
42106;SPS30;27764;50.278;19.032;2023-03-13T20:24:44;5;;5;;;;;;;
42106;SPS30;27764;50.278;19.032;2023-03-13T20:27:58;5;;5;;;;;;;
42106;SPS30;27764;50.278;19.032;2023-03-13T20:31:12;5;;5;;;;;;;
42106;SPS30;27764;50.278;19.032;2023-03-13T20:34:27;5;;5;;;;;;;
42106;SPS30;27764;50.278;19.032;2023-03-13T20:38:10;4;;4;;;;;;;
42106;SPS30;27764;50.278;19.032;2023-03-13T20:41:27;4;;4;;;;;;;
42106;SPS30;27764;50.278;19.032;2023-03-13T20:44:43;4;;4;;;;;;;
42106;SPS30;27764;50.278;19.032;2023-03-13T20:48:01;5;;5;;;;;;;
42106;SPS30;27764;50.278;19.032;2023-03-13T20:51:15;4;;4;;;;;;;
42106;SPS30;27764;50.278;19.032;2023-03-13T20:55:09;4;;4;;;;;;;
42106;SPS30;27764;50.278;19.032;2023-03-13T20:58:23;4;;4;;;;;;;
42106;SPS30;27764;50.278;19.032;2023-03-13T21:01:36;4;;4;;;;;;;
42106;SPS30;27764;50.278;19.032;2023-03-13T21:04:50;4;;4;;;;;;;
42106;SPS30;27764;50.278;19.032;2023-03-13T21:08:04;4;;4;;;;;;;
42106;SPS30;27764;50.278;19.032;2023-03-13T21:12:01;4;;4;;;;;;;
42106;SPS30;27764;50.278;19.032;2023-03-13T21:15:15;4;;4;;;;;;;
42106;SPS30;27764;50.278;19.032;2023-03-13T21:18:29;4;;4;;;;;;;
42106;SPS30;27764;50.278;19.032;2023-03-13T21:21:43;4;;4;;;;;;;
42106;SPS30;27764;50.278;19.032;2023-03-13T21:24:57;4;;4;;;;;;;
42106;SPS30;27764;50.278;19.032;2023-03-13T21:28:53;4;;4;;;;;;;
42106;SPS30;27764;50.278;19.032;2023-03-13T21:32:07;4;;4;;;;;;;
42106;SPS30;27764;50.278;19.032;2023-03-13T21:35:21;4;;4;;;;;;;
42106;SPS30;27764;50.278;19.032;2023-03-13T21:38:35;4;;4;;;;;;;
42106;SPS30;27764;50.278;19.032;2023-03-13T21:41:50;4;;4;;;;;;;
42106;SPS30;27764;50.278;19.032;2023-03-13T21:45:36;4;;4;;;;;;;
42106;SPS30;27764;50.278;19.032;2023-03-13T21:48:50;4;;4;;;;;;;
42106;SPS30;27764;50.278;19.032;2023-03-13T21:52:04;4;;4;;;;;;;
42106;SPS30;27764;50.278;19.032;2023-03-13T21:55:18;4;;4;;;;;;;
42106;SPS30;27764;50.278;19.032;2023-03-13T21:58:35;4;;4;;;;;;;
42106;SPS30;27764;50.278;19.032;2023-03-13T22:02:20;4;;4;;;;;;;
42106;SPS30;27764;50.278;19.032;2023-03-13T22:08:56;4;;4;;;;;;;
42106;SPS30;27764;50.278;19.032;2023-03-13T22:12:09;4;;4;;;;;;;
42106;SPS30;27764;50.278;19.032;2023-03-13T22:15:23;3;;3;;;;;;;
42106;SPS30;27764;50.278;19.032;2023-03-13T22:19:11;4;;4;;;;;;;
42106;SPS30;27764;50.278;19.032;2023-03-13T22:22:25;4;;4;;;;;;;
42106;SPS30;27764;50.278;19.032;2023-03-13T22:25:40;5;;5;;;;;;;
42106;SPS30;27764;50.278;19.032;2023-03-13T22:28:55;3;;3;;;;;;;
42106;SPS30;27764;50.278;19.032;2023-03-13T22:32:09;4;;4;;;;;;;
42106;SPS30;27764;50.278;19.032;2023-03-13T22:35:55;4;;4;;;;;;;
42106;SPS30;27764;50.278;19.032;2023-03-13T22:39:09;3;;3;;;;;;;
42106;SPS30;27764;50.278;19.032;2023-03-13T22:42:22;3;;3;;;;;;;
42106;SPS30;27764;50.278;19.032;2023-03-13T22:45:38;3;;3;;;;;;;
42106;SPS30;27764;50.278;19.032;2023-03-13T22:48:51;3;;3;;;;;;;
42106;SPS30;27764;50.278;19.032;2023-03-13T22:52:47;3;;3;;;;;;;
42106;SPS30;27764;50.278;19.032;2023-03-13T22:56:01;4;;4;;;;;;;
42106;SPS30;27764;50.278;19.032;2023-03-13T22:59:15;3;;3;;;;;;;
42106;SPS30;27764;50.278;19.032;2023-03-13T23:02:29;3;;3;;;;;;;
42106;SPS30;27764;50.278;19.032;2023-03-13T23:05:43;3;;3;;;;;;;
42106;SPS30;27764;50.278;19.032;2023-03-13T23:09:31;3;;3;;;;;;;
42106;SPS30;27764;50.278;19.032;2023-03-13T23:12:45;3;;3;;;;;;;
42106;SPS30;27764;50.278;19.032;2023-03-13T23:15:58;3;;3;;;;;;;
42106;SPS30;27764;50.278;19.032;2023-03-13T23:19:12;3;;3;;;;;;;
42106;SPS30;27764;50.278;19.032;2023-03-13T23:22:26;3;;3;;;;;;;
42106;SPS30;27764;50.278;19.032;2023-03-13T23:26:19;3;;3;;;;;;;
42106;SPS30;27764;50.278;19.032;2023-03-13T23:29:33;3;;3;;;;;;;
42106;SPS30;27764;50.278;19.032;2023-03-13T23:32:47;3;;3;;;;;;;
42106;SPS30;27764;50.278;19.032;2023-03-13T23:36:08;3;;3;;;;;;;
42106;SPS30;27764;50.278;19.032;2023-03-13T23:40:13;3;;3;;;;;;;
42106;SPS30;27764;50.278;19.032;2023-03-13T23:43:28;3;;3;;;;;;;
42106;SPS30;27764;50.278;19.032;2023-03-13T23:46:42;3;;3;;;;;;;
42106;SPS30;27764;50.278;19.032;2023-03-13T23:49:58;3;;3;;;;;;;
42106;SPS30;27764;50.278;19.032;2023-03-13T23:53:12;3;;3;;;;;;;
42106;SPS30;27764;50.278;19.032;2023-03-13T23:57:01;3;;3;;;;;;;
